Time;durP1;ratioP1;P1;durP2;ratioP2;P2;SDS_P1;SDS_P2;PMS_P1;PMS_P2;Temp;Humidity;BMP_temperature;BMP_pressure;BME280_temperature;BME280_humidity;BME280_pressure;Samples;Min_cycle;Max_cycle;Signal;HPM_P1;HPM_P2
2023/06/23 00:01:20;;;;;;;13.63;12.23;;;;;;;21.55;100.00;101229.81;5036910;28;20090;-78
2023/06/23 00:03:45;;;;;;;13.88;11.15;;;;;;;21.24;100.00;101217.63;5053144;28;20534;-77
2023/06/23 00:06:12;;;;;;;14.05;11.52;;;;;;;21.17;100.00;101187.00;5053948;28;20063;-75
2023/06/23 00:08:40;;;;;;;14.15;11.68;;;;;;;21.51;100.00;101230.88;5052702;28;20017;-74
2023/06/23 00:14:27;;;;;;;12.93;11.60;;;;;;;21.65;100.00;101243.09;5054514;28;20143;-76
2023/06/23 00:16:52;;;;;;;12.88;11.50;;;;;;;20.79;100.00;101121.72;5053052;28;20119;-76
2023/06/23 00:19:18;;;;;;;12.70;10.50;;;;;;;21.36;100.00;101227.34;5053946;28;20442;-74
2023/06/23 00:21:46;;;;;;;12.95;10.93;;;;;;;21.04;100.00;101186.78;5054311;28;20021;-77
2023/06/23 00:24:11;;;;;;;13.35;10.23;;;;;;;21.51;100.00;101259.38;5053158;28;20454;-77
2023/06/23 00:26:37;;;;;;;11.18;9.88;;;;;;;21.74;100.00;101235.66;5053884;28;20104;-75
2023/06/23 00:29:05;;;;;;;11.52;10.25;;;;;;;21.70;100.00;101238.50;5053356;28;20096;-75
2023/06/23 00:31:30;;;;;;;13.25;10.30;;;;;;;21.15;100.00;101181.06;5053675;28;20029;-75
2023/06/23 00:37:17;;;;;;;13.05;10.60;;;;;;;21.42;100.00;101250.31;5054409;28;20039;-75
2023/06/23 00:43:04;;;;;;;11.93;10.73;;;;;;;20.89;100.00;101236.69;5042618;28;20126;-76
2023/06/23 00:45:30;;;;;;;12.52;10.93;;;;;;;21.14;100.00;101270.75;5051910;28;20424;-74
2023/06/23 00:47:55;;;;;;;15.60;11.27;;;;;;;21.61;100.00;101291.59;5053473;28;20028;-77
2023/06/23 00:50:23;;;;;;;11.27;10.18;;;;;;;21.26;100.00;101239.09;5052990;28;20039;-75
2023/06/23 00:56:10;;;;;;;14.13;11.40;;;;;;;21.52;100.00;101263.59;5054286;28;20086;-77
2023/06/23 01:02:00;;;;;;;12.07;10.98;;;;;;;21.01;100.00;101232.63;5053615;28;20114;-76
2023/06/23 01:08:03;;;;;;;12.43;11.18;;;;;;;21.67;100.00;101309.41;5053830;28;20039;-77
2023/06/23 01:10:42;;;;;;;12.88;11.15;;;;;;;21.44;100.00;101286.47;5052239;28;20031;-74
2023/06/23 01:16:32;;;;;;;16.45;13.70;;;;;;;21.07;100.00;101328.91;5053649;28;20047;-74
2023/06/23 01:19:09;;;;;;;15.68;14.13;;;;;;;21.05;100.00;101354.00;5052692;28;20088;-74
2023/06/23 01:22:03;;;;;;;15.90;13.27;;;;;;;21.10;100.00;101369.28;5052970;28;20056;-75
2023/06/23 01:24:59;;;;;;;18.98;14.00;;;;;;;20.83;100.00;101388.69;5052773;28;20531;-75
2023/06/23 01:27:58;;;;;;;18.23;14.40;;;;;;;20.89;100.00;101397.00;5053427;28;20112;-75
2023/06/23 01:30:29;;;;;;;20.33;13.68;;;;;;;20.65;100.00;101396.44;5053207;28;20027;-75
2023/06/23 01:33:17;;;;;;;19.17;14.13;;;;;;;20.41;100.00;101453.56;5052379;28;20033;-75
2023/06/23 01:35:47;;;;;;;19.05;12.82;;;;;;;20.41;100.00;101492.31;5051871;28;20036;-76
2023/06/23 01:38:27;;;;;;;16.95;11.95;;;;;;;20.09;100.00;101501.44;5052487;28;20040;-76
2023/06/23 01:44:16;;;;;;;13.88;12.40;;;;;;;19.82;100.00;101546.50;5043792;28;20076;-74
2023/06/23 01:46:44;;;;;;;16.27;12.60;;;;;;;20.06;100.00;101536.88;5052696;28;20111;-74
2023/06/23 01:49:16;;;;;;;22.30;14.25;;;;;;;20.28;100.00;101590.19;5053106;28;20056;-74
2023/06/23 01:51:46;;;;;;;15.13;13.23;;;;;;;19.82;100.00;101500.03;5053342;28;20024;-74
2023/06/23 01:54:14;;;;;;;15.63;13.10;;;;;;;20.37;100.00;101601.88;5051745;28;20328;-74
2023/06/23 01:56:42;;;;;;;15.45;12.40;;;;;;;20.20;100.00;101578.50;5052625;28;20021;-75
2023/06/23 01:59:13;;;;;;;18.23;12.77;;;;;;;20.45;100.00;101631.69;5034403;28;20021;-75
2023/06/23 02:01:40;;;;;;;21.43;14.13;;;;;;;20.11;100.00;101644.28;5053339;28;20036;-75
2023/06/23 02:04:06;;;;;;;17.17;13.80;;;;;;;20.22;100.00;101669.72;5036615;28;20366;-75
2023/06/23 02:06:35;;;;;;;16.45;13.18;;;;;;;19.73;100.00;101661.28;5055339;28;20070;-74
2023/06/23 02:09:03;;;;;;;17.73;12.27;;;;;;;19.66;100.00;101628.88;5056552;28;20401;-75
2023/06/23 02:11:32;;;;;;;21.38;13.18;;;;;;;20.07;100.00;101698.69;5056794;28;20047;-75
2023/06/23 02:17:21;;;;;;;20.30;12.82;;;;;;;19.51;100.00;101677.66;5057183;28;20073;-75
2023/06/23 02:19:48;;;;;;;20.67;13.00;;;;;;;19.45;100.00;101660.63;5038380;28;20028;-75
2023/06/23 02:22:18;;;;;;;15.98;12.75;;;;;;;19.41;100.00;101687.44;5056519;28;20021;-74
2023/06/23 02:28:11;;;;;;;20.80;13.30;;;;;;;19.26;100.00;101700.03;5056997;28;20044;-74
2023/06/23 02:30:38;;;;;;;21.10;13.02;;;;;;;19.83;100.00;101802.03;5054725;28;20043;-75
2023/06/23 02:33:04;;;;;;;17.80;12.98;;;;;;;19.27;100.00;101725.81;5056794;28;20443;-75
2023/06/23 02:35:30;;;;;;;19.45;13.05;;;;;;;19.82;100.00;101802.09;5055280;28;20043;-75
2023/06/23 02:38:00;;;;;;;19.42;13.30;;;;;;;19.79;100.00;101808.19;5055958;28;20382;-75
2023/06/23 02:40:27;;;;;;;20.92;13.57;;;;;;;19.67;100.00;101806.06;5055859;28;20275;-75
2023/06/23 02:43:18;;;;;;;16.98;13.55;;;;;;;19.70;100.00;101810.28;5054436;28;20052;-75
2023/06/23 02:45:49;;;;;;;16.65;13.50;;;;;;;19.85;100.00;101831.22;5011300;28;20041;-75
2023/06/23 02:48:18;;;;;;;16.60;12.70;;;;;;;19.48;100.00;101770.66;5015659;28;20061;-75
2023/06/23 02:50:47;;;;;;;17.23;12.82;;;;;;;19.21;100.00;101745.81;5014911;28;20040;-76
2023/06/23 02:53:21;;;;;;;19.73;13.52;;;;;;;19.95;100.00;101836.88;5031011;28;20444;-76
2023/06/23 02:55:49;;;;;;;14.98;13.38;;;;;;;19.61;100.00;101782.22;5015352;28;20034;-77
2023/06/23 02:58:17;;;;;;;15.90;14.18;;;;;;;19.80;100.00;101834.88;5015631;28;20026;-76
2023/06/23 03:00:44;;;;;;;16.58;14.77;;;;;;;19.85;100.00;101858.75;5030941;28;20117;-78
2023/06/23 03:03:14;;;;;;;16.70;14.85;;;;;;;19.33;100.00;101790.06;5015996;28;20030;-75
2023/06/23 03:09:06;;;;;;;19.73;16.15;;;;;;;19.72;100.00;101811.91;5016131;28;20049;-76
2023/06/23 03:11:33;;;;;;;16.63;14.88;;;;;;;20.13;100.00;101822.44;5015940;28;20026;-77
2023/06/23 03:13:59;;;;;;;17.35;15.13;;;;;;;20.06;100.00;101870.06;5014805;28;20145;-76
2023/06/23 03:16:47;;;;;;;20.35;15.27;;;;;;;20.27;100.00;101869.28;5013772;28;20033;-75
2023/06/23 03:22:39;;;;;;;18.50;15.18;;;;;;;19.48;100.00;101776.66;5015793;28;20036;-75
2023/06/23 03:25:21;;;;;;;18.17;15.77;;;;;;;19.60;100.00;101796.88;5015206;28;20486;-75
2023/06/23 03:31:12;;;;;;;24.50;17.00;;;;;;;19.52;100.00;101798.03;5015582;28;20416;-77
2023/06/23 03:37:02;;;;;;;20.63;16.52;;;;;;;20.09;100.00;101906.94;5015142;28;20041;-75
2023/06/23 03:39:33;;;;;;;22.08;16.48;;;;;;;19.80;100.00;101871.88;5013630;28;20079;-75
2023/06/23 03:42:00;;;;;;;21.25;16.85;;;;;;;19.69;100.00;101849.88;5014806;28;20377;-75
2023/06/23 03:44:33;;;;;;;22.95;17.55;;;;;;;19.95;100.00;101906.59;5038477;28;20041;-78
2023/06/23 03:50:25;;;;;;;21.48;16.42;;;;;;;20.19;100.00;101910.06;5034787;28;20040;-75
2023/06/23 03:52:51;;;;;;;22.65;17.30;;;;;;;20.13;100.00;101871.50;5050383;28;20387;-75
2023/06/23 03:55:20;;;;;;;21.73;17.77;;;;;;;20.43;100.00;101932.44;5033529;28;20434;-78
2023/06/23 04:01:08;;;;;;;20.30;17.67;;;;;;;20.23;100.00;101897.00;5034583;28;20494;-74
2023/06/23 04:03:38;;;;;;;18.90;17.02;;;;;;;20.40;100.00;101942.91;5034016;28;20041;-80
2023/06/23 04:06:06;;;;;;;19.42;16.98;;;;;;;19.92;100.00;101838.72;5035064;28;20116;-82
2023/06/23 04:08:34;;;;;;;19.00;17.10;;;;;;;20.36;100.00;101877.53;5034574;28;20120;-75
2023/06/23 04:14:24;;;;;;;19.80;17.70;;;;;;;20.42;100.00;101934.16;5034741;28;20116;-76
2023/06/23 04:16:53;;;;;;;19.40;17.35;;;;;;;20.69;100.00;101943.47;5033979;28;20033;-81
2023/06/23 04:19:25;;;;;;;20.10;18.00;;;;;;;20.53;100.00;101916.53;5035209;28;20036;-79
2023/06/23 04:21:52;;;;;;;20.08;17.95;;;;;;;20.81;100.00;101897.34;5034566;28;20032;-83
2023/06/23 04:24:19;;;;;;;20.95;18.55;;;;;;;21.09;100.00;101955.75;5034676;28;20033;-83
2023/06/23 04:26:50;;;;;;;19.80;17.63;;;;;;;21.57;100.00;101955.47;5034066;28;20467;-77
2023/06/23 04:29:18;;;;;;;19.52;17.63;;;;;;;21.08;100.00;101911.78;5031935;28;20032;-74
2023/06/23 04:35:06;;;;;;;22.77;18.90;;;;;;;21.73;100.00;101951.31;5033398;28;20135;-76
2023/06/23 04:37:46;;;;;;;20.52;18.40;;;;;;;22.03;100.00;101946.59;5033701;28;20464;-74
2023/06/23 04:43:38;;;;;;;20.50;18.50;;;;;;;21.75;100.00;101918.44;5035173;28;20044;-76
2023/06/23 04:46:16;;;;;;;20.13;17.95;;;;;;;22.78;100.00;101970.88;5035382;28;20112;-76
2023/06/23 04:48:59;;;;;;;22.65;19.50;;;;;;;22.10;100.00;101897.06;5052095;28;20075;-75
2023/06/23 04:51:32;;;;;;;22.23;18.42;;;;;;;22.44;100.00;101945.63;5053062;28;20035;-75
2023/06/23 04:54:07;;;;;;;21.67;18.55;;;;;;;22.40;100.00;101957.03;5052380;28;20056;-76
2023/06/23 04:59:58;;;;;;;21.80;19.60;;;;;;;22.02;100.00;101887.94;5053071;28;20055;-74
2023/06/23 05:05:49;;;;;;;24.38;20.33;;;;;;;22.48;100.00;101916.06;5053208;28;20028;-74
2023/06/23 05:08:15;;;;;;;23.00;20.52;;;;;;;22.07;100.00;101855.72;5052534;28;20021;-74
2023/06/23 05:10:45;;;;;;;21.60;19.50;;;;;;;22.47;100.00;101913.50;5050846;28;20029;-74
2023/06/23 05:13:11;;;;;;;22.60;20.42;;;;;;;22.44;100.00;101866.06;5034503;28;20029;-75
2023/06/23 05:19:01;;;;;;;22.98;20.52;;;;;;;23.15;100.00;101918.91;5053438;28;20044;-75
2023/06/23 05:21:29;;;;;;;22.48;20.08;;;;;;;23.25;100.00;101920.94;5052304;28;20082;-75
2023/06/23 05:23:57;;;;;;;22.00;19.73;;;;;;;23.58;100.00;101983.41;5053470;28;20028;-75
2023/06/23 05:26:33;;;;;;;23.77;21.35;;;;;;;23.51;100.00;101879.91;5052494;28;20039;-75
2023/06/23 05:29:00;;;;;;;21.30;19.20;;;;;;;23.89;100.00;101908.16;5051319;28;20108;-75
2023/06/23 05:31:28;;;;;;;21.05;19.05;;;;;;;23.76;100.00;101934.88;5035022;28;20037;-76
2023/06/23 05:37:31;;;;;;;21.38;19.30;;;;;;;23.97;100.00;101867.03;5052175;28;20039;-77
2023/06/23 05:39:58;;;;;;;20.02;18.02;;;;;;;24.88;100.00;101901.88;5050720;28;20033;-74
2023/06/23 05:42:24;;;;;;;20.40;18.40;;;;;;;24.88;100.00;101878.47;5034626;28;20057;-74
2023/06/23 05:44:49;;;;;;;19.25;17.35;;;;;;;24.75;100.00;101866.25;5050487;28;20068;-75
2023/06/23 05:47:19;;;;;;;20.13;17.33;;;;;;;24.86;100.00;101843.03;5034055;28;20115;-74
2023/06/23 05:49:46;;;;;;;19.17;16.92;;;;;;;24.93;100.00;101810.53;5050514;28;20052;-75
2023/06/23 05:52:17;;;;;;;17.08;15.57;;;;;;;25.24;100.00;101828.63;5051776;28;20043;-75
2023/06/23 05:58:11;;;;;;;19.13;16.95;;;;;;;24.79;100.00;101768.84;5053412;28;20030;-75
2023/06/23 06:00:50;;;;;;;17.83;16.13;;;;;;;25.16;100.00;101724.06;5052254;28;20032;-74
2023/06/23 06:06:39;;;;;;;17.00;14.68;;;;;;;25.25;100.00;101667.97;5052435;28;20131;-76
2023/06/23 06:09:07;;;;;;;17.75;14.30;;;;;;;25.67;100.00;101666.13;5052281;28;20467;-76
2023/06/23 06:11:35;;;;;;;16.80;13.32;;;;;;;25.42;100.00;101655.59;5051842;28;20123;-76
2023/06/23 06:14:02;;;;;;;14.80;13.40;;;;;;;25.71;100.00;101636.34;5051947;28;20021;-75
2023/06/23 06:16:28;;;;;;;15.25;13.48;;;;;;;26.26;100.00;101614.50;5052241;28;20056;-76
2023/06/23 06:18:55;;;;;;;17.17;13.85;;;;;;;25.74;100.00;101555.34;5051885;28;20487;-76
2023/06/23 06:21:22;;;;;;;15.80;13.50;;;;;;;26.08;100.00;101587.03;5052689;28;20032;-75
2023/06/23 06:23:48;;;;;;;18.90;14.55;;;;;;;26.53;100.00;101615.25;5050608;28;20029;-76
2023/06/23 06:29:38;;;;;;;19.55;13.98;;;;;;;26.91;100.00;101594.34;5052574;28;20052;-76
2023/06/23 06:35:27;;;;;;;14.02;12.60;;;;;;;26.28;100.00;101497.84;5052588;28;20094;-75
2023/06/23 06:37:55;;;;;;;13.93;12.73;;;;;;;26.92;100.00;101541.19;5033667;28;20467;-76
2023/06/23 06:40:26;;;;;;;14.18;12.68;;;;;;;26.56;100.00;101461.88;5033806;28;20032;-76
2023/06/23 06:42:51;;;;;;;;;;;;;;;26.62;100.00;101525.88;5051254;28;20021;-75
2023/06/23 06:48:39;;;;;;;13.30;12.00;;;;;;;27.44;100.00;101545.19;5052000;28;20094;-75
2023/06/23 06:51:06;;;;;;;11.30;9.98;;;;;;;26.92;100.00;101543.81;5053843;28;20399;-75
2023/06/23 06:53:32;;;;;;;14.38;10.40;;;;;;;27.79;100.00;101545.19;5055543;28;20067;-74
2023/06/23 06:55:58;;;;;;;14.23;10.20;;;;;;;27.82;100.00;101504.91;5054358;28;20405;-74
2023/06/23 06:58:25;;;;;;;11.10;10.05;;;;;;;27.48;100.00;101395.97;5053921;28;20040;-74
2023/06/23 07:00:52;;;;;;;11.35;10.27;;;;;;;27.73;100.00;101246.75;5054981;28;20120;-75
2023/06/23 07:03:19;;;;;;;13.27;10.63;;;;;;;26.74;100.00;101090.88;5054868;28;20098;-75
2023/06/23 07:05:44;;;;;;;12.57;11.48;;;;;;;27.43;100.00;100869.25;5053621;28;20029;-75
2023/06/23 07:11:31;;;;;;;11.82;10.65;;;;;;;27.65;100.00;100564.25;5055098;28;20506;-74
2023/06/23 07:13:58;;;;;;;11.38;10.27;;;;;;;28.48;100.00;100259.06;5036617;28;20029;-76
2023/06/23 07:16:24;;;;;;;14.07;11.32;;;;;;;28.64;100.00;99916.31;5054585;28;20143;-74
2023/06/23 07:18:50;;;;;;;9.18;8.27;;;;;;;28.74;100.00;99655.19;5055263;28;20017;-74
2023/06/23 07:21:15;;;;;;;11.75;8.20;;;;;;;28.09;100.00;99384.22;5053106;28;20064;-74
2023/06/23 07:23:40;;;;;;;8.95;8.07;;;;;;;28.19;100.00;98744.19;5036224;28;20025;-74
2023/06/23 07:26:06;;;;;;;8.73;7.70;;;;;;;28.56;100.00;98165.88;5054191;28;20032;-74
2023/06/23 07:28:31;;;;;;;8.80;7.22;;;;;;;28.10;100.00;98010.78;5036498;28;20029;-74
2023/06/23 07:34:18;;;;;;;10.02;9.02;;;;;;;28.67;100.00;97850.50;5054322;28;20176;-74
2023/06/23 07:40:06;;;;;;;9.68;8.80;;;;;;;28.78;100.00;97852.47;5054586;28;20043;-76
2023/06/23 07:42:32;;;;;;;10.15;8.73;;;;;;;29.37;100.00;97784.78;5054652;28;20479;-77
2023/06/23 07:44:57;;;;;;;10.45;9.20;;;;;;;28.57;100.00;97868.47;5049021;28;20048;-76
2023/06/23 07:47:23;;;;;;;10.50;9.52;;;;;;;28.20;100.00;97809.88;5034516;28;20403;-76
2023/06/23 07:53:10;;;;;;;10.93;9.30;;;;;;;29.79;100.00;97752.50;5034941;28;20506;-76
2023/06/23 07:55:35;;;;;;;10.52;9.52;;;;;;;29.61;100.00;97751.69;5049565;28;20050;-77
2023/06/23 07:58:01;;;;;;;10.32;9.20;;;;;;;28.84;100.00;97673.69;5048881;28;20025;-77
2023/06/23 08:00:27;;;;;;;10.40;9.20;;;;;;;28.81;100.00;97669.69;5034498;28;20025;-76
2023/06/23 08:06:17;;;;;;;10.45;9.55;;;;;;;29.91;100.00;97632.81;5034103;28;20036;-74
2023/06/23 08:08:46;;;;;;;12.13;8.82;;;;;;;30.05;100.00;97609.03;5033649;28;20029;-74
2023/06/23 08:11:12;;;;;;;9.55;8.65;;;;;;;29.74;100.00;97612.69;5033756;28;20475;-76
2023/06/23 08:17:00;;;;;;;10.15;9.02;;;;;;;29.38;100.00;97723.53;5034752;28;20055;-76
2023/06/23 08:19:25;;;;;;;8.88;8.07;;;;;;;29.91;100.00;97681.84;5033727;28;20024;-76
2023/06/23 08:21:54;;;;;;;9.32;8.52;;;;;;;30.25;100.00;97759.81;5032286;28;20021;-76
2023/06/23 08:24:19;;;;;;;9.60;8.60;;;;;;;29.45;100.00;97787.13;5032627;28;20053;-73
2023/06/23 08:30:07;;;;;;;10.23;8.07;;;;;;;30.86;100.00;97804.22;5033346;28;20036;-74
2023/06/23 08:32:32;;;;;;;9.63;8.63;;;;;;;30.75;100.00;97837.25;5048272;28;20038;-75
2023/06/23 08:34:58;;;;;;;9.57;8.68;;;;;;;30.26;100.00;97821.75;5031455;28;20055;-75
2023/06/23 08:37:23;;;;;;;9.70;8.70;;;;;;;30.24;100.00;97910.34;5047933;28;20068;-73
2023/06/23 08:39:49;;;;;;;9.45;8.55;;;;;;;29.53;100.00;97847.09;5032996;28;20037;-75
2023/06/23 08:42:14;;;;;;;10.15;9.15;;;;;;;30.57;100.00;97871.41;5033062;28;20033;-75
2023/06/23 08:44:43;;;;;;;10.23;9.32;;;;;;;29.98;100.00;97884.38;5047528;28;20053;-74
2023/06/23 08:47:14;;;;;;;11.40;9.35;;;;;;;30.41;100.00;97717.25;5032334;28;20076;-75
2023/06/23 08:49:41;;;;;;;10.32;9.30;;;;;;;30.90;100.00;97825.56;5033049;28;20091;-75
2023/06/23 08:52:09;;;;;;;11.00;9.00;;;;;;;30.82;100.00;97878.34;5047979;28;20030;-75
2023/06/23 08:54:35;;;;;;;9.98;8.98;;;;;;;30.40;100.00;97854.69;5031918;28;20051;-74
2023/06/23 09:00:22;;;;;;;11.23;9.55;;;;;;;30.63;100.00;97917.75;5033266;28;20091;-75
2023/06/23 09:02:48;;;;;;;11.70;10.15;;;;;;;29.98;100.00;97994.50;5032436;28;20033;-75
2023/06/23 09:05:13;;;;;;;10.75;9.75;;;;;;;31.03;100.00;97927.78;5048394;28;20025;-75
2023/06/23 09:07:39;;;;;;;10.73;9.40;;;;;;;30.84;100.00;97902.59;5033049;28;20017;-75
2023/06/23 09:10:06;;;;;;;9.85;9.02;;;;;;;31.02;100.00;97884.16;5032823;28;20380;-75
2023/06/23 09:15:57;;;;;;;10.52;9.43;;;;;;;30.60;100.00;97831.59;5033151;28;20502;-74
2023/06/23 09:18:23;;;;;;;11.48;9.02;;;;;;;31.52;100.00;97923.00;5048844;28;20044;-76
2023/06/23 09:20:50;;;;;;;10.75;9.48;;;;;;;32.43;100.00;97793.47;5031272;28;20026;-75
2023/06/23 09:23:20;;;;;;;11.40;9.60;;;;;;;31.20;100.00;97994.44;5033131;28;20025;-76
2023/06/23 09:32:29;;;;;;;10.35;9.27;;;;;;;32.75;100.00;98189.59;5032944;28;20044;-74
2023/06/23 09:34:57;;;;;;;10.27;9.40;;;;;;;31.95;100.00;98363.78;5032812;28;20097;-74
2023/06/23 09:37:22;;;;;;;12.77;9.80;;;;;;;32.48;100.00;98666.72;5048161;28;20037;-75
2023/06/23 09:39:48;;;;;;;10.60;9.80;;;;;;;31.88;100.00;99279.16;5032897;28;20022;-75
2023/06/23 09:49:07;;;;;;;11.02;9.88;;;;;;;31.28;100.00;100677.41;5052520;28;20124;-74
2023/06/23 09:51:44;;;;;;;11.02;9.90;;;;;;;31.73;100.00;100943.66;5034269;28;20056;-74
2023/06/23 09:54:10;;;;;;;13.15;9.75;;;;;;;31.78;100.00;101280.03;5052073;28;20549;-74
2023/06/23 09:59:58;;;;;;;;;;;;;;;31.70;100.00;101445.72;5052780;28;20032;-74
2023/06/23 10:05:44;;;;;;;;;;;;;;;32.63;100.00;101443.81;5052716;28;20407;-74
2023/06/23 10:08:13;;;;;;;11.10;9.07;;;;;;;32.57;100.00;101439.97;5051643;28;19905;-75
2023/06/23 10:10:44;;;;;;;10.27;9.25;;;;;;;32.25;100.00;101421.97;5034348;28;20526;-74
2023/06/23 10:13:10;;;;;;;10.45;9.50;;;;;;;31.60;100.00;101361.53;5051709;28;20391;-74
2023/06/23 10:18:58;;;;;;;14.18;9.38;;;;;;;32.53;100.00;101245.41;5052202;28;20120;-74
2023/06/23 10:24:50;;;;;;;10.60;9.70;;;;;;;32.61;100.00;101113.72;5062142;28;20040;-75
2023/06/23 10:27:25;;;;;;;9.45;8.52;;;;;;;32.63;100.00;100993.19;5059205;28;20448;-74
2023/06/23 10:29:54;;;;;;;8.73;7.95;;;;;;;32.38;100.00;100902.69;5038163;28;20106;-74
2023/06/23 10:35:41;;;;;;;8.40;7.60;;;;;;;33.18;100.00;100686.56;5055435;28;20082;-74
2023/06/23 10:38:12;;;;;;;8.32;7.55;;;;;;;31.59;100.00;100634.63;5053510;28;20394;-74
2023/06/23 10:40:41;;;;;;;8.20;7.43;;;;;;;32.20;100.00;100586.00;5054264;28;20025;-74
2023/06/23 10:43:07;;;;;;;8.35;7.57;;;;;;;33.24;100.00;100582.22;5037015;28;20025;-73
2023/06/23 10:45:34;;;;;;;8.57;7.53;;;;;;;32.32;100.00;100621.53;5055235;28;20440;-73
2023/06/23 10:48:00;;;;;;;11.93;8.15;;;;;;;33.12;100.00;100591.53;5054796;28;20468;-74
2023/06/23 10:50:29;;;;;;;8.32;7.57;;;;;;;32.70;100.00;100554.97;5054756;28;20029;-73
2023/06/23 10:56:31;;;;;;;9.65;7.55;;;;;;;33.80;100.00;100565.19;5055184;28;20039;-74
2023/06/23 10:58:57;;;;;;;9.13;7.63;;;;;;;33.53;100.00;100550.75;5037116;28;20021;-74
2023/06/23 11:01:22;;;;;;;9.65;7.28;;;;;;;32.69;100.00;100499.78;5054010;28;20035;-73
2023/06/23 11:03:53;;;;;;;8.77;7.88;;;;;;;33.07;100.00;100541.13;5054638;28;20028;-74
2023/06/23 11:06:34;;;;;;;8.40;7.55;;;;;;;32.05;100.00;100498.97;5053595;28;20029;-74
2023/06/23 11:12:33;;;;;;;8.32;7.63;;;;;;;33.50;100.00;100524.69;5054762;28;20036;-75
2023/06/23 11:15:20;;;;;;;9.60;7.40;;;;;;;32.46;100.00;100539.22;5053651;28;20029;-74
2023/06/23 11:17:49;;;;;;;8.20;7.40;;;;;;;32.86;100.00;100454.69;5053679;28;20028;-73
2023/06/23 11:20:30;;;;;;;8.77;7.97;;;;;;;33.25;100.00;100502.09;5037002;28;20462;-74
2023/06/23 11:22:59;;;;;;;9.85;8.48;;;;;;;33.60;100.00;100445.28;5054854;28;20112;-74
2023/06/23 11:25:47;;;;;;;9.40;8.50;;;;;;;33.53;100.00;100478.66;5054729;28;20061;-75
2023/06/23 11:28:29;;;;;;;9.30;8.27;;;;;;;33.60;100.00;100475.13;5054592;28;20027;-76
2023/06/23 11:34:15;;;;;;;;;;;;;;;32.81;100.00;100493.94;5055416;28;20062;-73
2023/06/23 11:36:43;;;;;;;9.40;8.40;;;;;;;31.86;100.00;100445.84;5051395;28;19991;-75
2023/06/23 11:39:08;;;;;;;8.93;8.13;;;;;;;32.74;100.00;100402.59;5053723;28;20021;-74
2023/06/23 11:41:33;;;;;;;9.60;8.70;;;;;;;33.75;100.00;100436.41;5053895;28;20106;-74
2023/06/23 11:44:00;;;;;;;9.10;8.30;;;;;;;34.13;100.00;100445.06;5052313;28;20032;-74
2023/06/23 11:46:27;;;;;;;9.35;8.45;;;;;;;33.04;100.00;100412.28;5053874;28;20126;-74
2023/06/23 11:48:53;;;;;;;10.65;8.38;;;;;;;33.17;100.00;100463.44;5054186;28;20028;-73
2023/06/23 11:51:21;;;;;;;10.10;8.38;;;;;;;33.11;100.00;100431.66;5053991;28;20016;-74
2023/06/23 11:57:08;;;;;;;8.98;8.27;;;;;;;32.59;100.00;100402.50;5053973;28;20086;-75
2023/06/23 11:59:38;;;;;;;9.05;8.25;;;;;;;33.00;100.00;100390.72;5035591;28;20468;-73
2023/06/23 12:02:05;;;;;;;10.38;8.27;;;;;;;33.57;100.00;100430.66;5053970;28;20035;-73
2023/06/23 12:04:34;;;;;;;8.63;7.82;;;;;;;33.00;100.00;100347.75;5051659;28;20025;-73
2023/06/23 12:07:00;;;;;;;8.90;8.10;;;;;;;33.48;100.00;100434.34;5053244;28;20098;-74
2023/06/23 12:09:26;;;;;;;9.43;8.48;;;;;;;33.49;100.00;100427.25;5035536;28;20049;-74
2023/06/23 12:11:54;;;;;;;9.55;8.27;;;;;;;33.31;100.00;100364.25;5051968;28;20398;-74
2023/06/23 12:17:41;;;;;;;9.00;8.20;;;;;;;32.92;100.00;100368.84;5053856;28;20085;-74
2023/06/23 12:20:08;;;;;;;9.48;8.68;;;;;;;32.99;100.00;100419.91;5051303;28;20452;-74
2023/06/23 12:22:38;;;;;;;9.55;8.65;;;;;;;33.77;100.00;100417.75;5052682;28;20036;-75
2023/06/23 12:25:06;;;;;;;9.68;8.88;;;;;;;32.88;100.00;100371.00;5034852;28;20028;-75
2023/06/23 12:30:53;;;;;;;;;;;;;;;33.40;100.00;100415.91;5053687;28;20136;-74
2023/06/23 12:33:18;;;;;;;9.52;8.43;;;;;;;33.41;100.00;100408.84;5051305;28;20398;-74
2023/06/23 12:36:03;;;;;;;9.87;9.03;;;;;;;33.18;100.00;100414.97;5051993;28;20028;-74
2023/06/23 12:41:50;;;;;;;9.80;8.70;;;;;;;32.91;100.00;100398.84;5053823;28;20060;-73
2023/06/23 12:44:15;;;;;;;9.07;8.13;;;;;;;32.20;100.00;100383.28;5051661;28;20464;-75
2023/06/23 12:50:06;;;;;;;9.35;8.55;;;;;;;31.96;100.00;100418.41;5053568;28;20065;-75
2023/06/23 12:52:31;;;;;;;10.18;8.50;;;;;;;31.80;100.00;100431.56;5053324;28;20538;-74
2023/06/23 12:54:57;;;;;;;9.32;8.57;;;;;;;31.63;100.00;100372.91;5053434;28;20048;-75
2023/06/23 12:57:22;;;;;;;9.70;8.90;;;;;;;31.89;100.00;100390.28;5053125;28;20036;-74
2023/06/23 13:03:13;;;;;;;;;;;;;;;32.37;100.00;100406.72;5054105;28;20040;-74
2023/06/23 13:09:00;;;;;;;9.88;8.88;;;;;;;31.74;100.00;100411.19;5053679;28;20481;-75
2023/06/23 13:11:27;;;;;;;9.90;8.90;;;;;;;32.49;100.00;100357.13;5052440;28;20021;-74
2023/06/23 13:13:54;;;;;;;10.15;9.15;;;;;;;32.12;100.00;100349.91;5052861;28;20017;-75
2023/06/23 13:16:20;;;;;;;9.40;8.57;;;;;;;32.96;100.00;100385.97;5034911;28;20543;-74
2023/06/23 13:18:45;;;;;;;10.13;9.13;;;;;;;33.26;100.00;100387.69;5051268;28;20116;-74
2023/06/23 13:21:10;;;;;;;9.27;8.38;;;;;;;33.67;100.00;100359.13;5034694;28;20471;-74
2023/06/23 13:23:36;;;;;;;9.82;8.90;;;;;;;33.25;100.00;100378.16;5051378;28;20036;-74
2023/06/23 13:26:01;;;;;;;9.30;8.60;;;;;;;33.01;100.00;100384.47;5051462;28;20060;-74
2023/06/23 13:28:27;;;;;;;9.32;8.18;;;;;;;32.85;100.00;100325.75;5034563;28;20060;-75
2023/06/23 13:34:14;;;;;;;12.23;8.40;;;;;;;33.87;100.00;100357.56;5052752;28;20064;-74
2023/06/23 13:36:39;;;;;;;9.63;8.00;;;;;;;33.64;100.00;100318.09;5051645;28;20056;-74
2023/06/23 13:39:05;;;;;;;10.57;9.18;;;;;;;32.70;100.00;100319.63;5033894;28;20124;-74
2023/06/23 13:41:30;;;;;;;9.13;8.32;;;;;;;32.68;100.00;100374.31;5052255;28;20100;-75
2023/06/23 13:43:56;;;;;;;10.43;8.90;;;;;;;32.17;100.00;100320.44;5051246;28;20090;-76
2023/06/23 13:46:21;;;;;;;9.48;8.57;;;;;;;32.56;100.00;100347.53;5047237;28;20400;-74
2023/06/23 13:48:47;;;;;;;9.45;8.65;;;;;;;33.05;100.00;100369.94;5047084;28;20040;-73
2023/06/23 13:51:12;;;;;;;11.10;8.40;;;;;;;33.41;100.00;100354.25;5047212;28;20087;-74
2023/06/23 13:53:38;;;;;;;9.25;8.35;;;;;;;33.60;100.00;100364.31;5031779;28;20087;-74
2023/06/23 13:56:05;;;;;;;8.85;8.05;;;;;;;32.73;100.00;100364.03;5032084;28;20026;-74
2023/06/23 13:58:30;;;;;;;9.52;8.52;;;;;;;32.66;100.00;100371.03;5047485;28;20021;-76
2023/06/23 14:00:56;;;;;;;9.00;7.57;;;;;;;32.43;100.00;100358.63;5036025;28;20078;-74
2023/06/23 14:03:21;;;;;;;8.52;7.82;;;;;;;32.59;100.00;100335.81;5036248;28;20040;-73
2023/06/23 14:05:47;;;;;;;8.77;7.97;;;;;;;32.67;100.00;100275.16;5036669;28;20026;-74
2023/06/23 14:08:12;;;;;;;9.77;8.65;;;;;;;32.25;100.00;100365.97;5036579;28;20056;-76
2023/06/23 14:10:37;;;;;;;10.18;8.30;;;;;;;32.36;100.00;100368.22;5035934;28;20021;-75
2023/06/23 14:13:03;;;;;;;11.20;8.18;;;;;;;32.57;100.00;100290.38;5035179;28;20030;-77
2023/06/23 14:15:28;;;;;;;7.97;7.28;;;;;;;32.95;100.00;100298.16;5051806;28;20450;-74
2023/06/23 14:17:54;;;;;;;10.20;7.68;;;;;;;32.70;100.00;100290.63;5035319;28;20025;-74
2023/06/23 14:20:19;;;;;;;8.50;7.63;;;;;;;32.74;100.00;100297.19;5036254;28;20037;-74
2023/06/23 14:22:45;;;;;;;22.00;7.78;;;;;;;33.04;100.00;100347.19;5035273;28;20017;-85
2023/06/23 14:25:10;;;;;;;9.00;7.38;;;;;;;33.15;100.00;100286.13;5036374;28;20017;-81
2023/06/23 14:27:36;;;;;;;10.65;7.40;;;;;;;33.19;100.00;100344.59;5036780;28;20029;-86